createdAt,value
2017-07-30T00:01:03.329Z,7.90
2017-07-30T00:03:32.049Z,6.70
2017-07-30T00:06:02.506Z,7.30
2017-07-30T00:08:31.895Z,7.00
2017-07-30T00:11:00.571Z,5.87
2017-07-30T00:13:28.880Z,5.73
2017-07-30T00:15:57.322Z,6.27
2017-07-30T00:18:26.113Z,6.53
2017-07-30T00:20:54.701Z,5.60
2017-07-30T00:23:23.752Z,5.43
2017-07-30T00:25:52.054Z,6.53
2017-07-30T00:28:20.383Z,6.40
2017-07-30T00:30:49.470Z,8.43
2017-07-30T00:33:18.185Z,5.30
2017-07-30T00:35:46.453Z,6.03
2017-07-30T00:38:15.354Z,5.97
2017-07-30T00:40:43.924Z,10.10
2017-07-30T00:43:12.231Z,8.67
2017-07-30T00:45:40.888Z,6.67
2017-07-30T00:48:09.185Z,6.90
2017-07-30T00:50:37.480Z,5.70
2017-07-30T00:53:05.865Z,6.60
2017-07-30T00:55:34.239Z,5.90
2017-07-30T00:58:03.227Z,6.00
2017-07-30T01:00:31.539Z,5.70
2017-07-30T01:03:01.056Z,6.70
2017-07-30T01:05:30.521Z,6.23
2017-07-30T01:07:59.565Z,7.00
2017-07-30T01:10:28.947Z,5.57
2017-07-30T01:12:57.450Z,6.30
2017-07-30T01:15:26.515Z,5.50
2017-07-30T01:17:55.204Z,5.83
2017-07-30T01:20:23.507Z,6.33
2017-07-30T01:22:52.817Z,5.57
2017-07-30T01:25:21.135Z,5.70
2017-07-30T01:27:49.971Z,6.47
2017-07-30T01:30:18.285Z,5.63
2017-07-30T01:32:47.353Z,6.07
2017-07-30T01:35:15.948Z,6.50
2017-07-30T01:37:46.034Z,6.07
2017-07-30T01:40:14.545Z,5.40
2017-07-30T01:42:42.865Z,5.80
2017-07-30T01:45:11.940Z,6.27
2017-07-30T01:47:40.730Z,5.20
2017-07-30T01:50:09.046Z,4.90
2017-07-30T01:52:37.312Z,6.57
2017-07-30T01:55:06.501Z,5.80
2017-07-30T01:57:34.808Z,6.40
2017-07-30T02:00:03.130Z,6.67
2017-07-30T02:02:31.444Z,5.80
2017-07-30T02:04:59.746Z,7.43
2017-07-30T02:07:29.539Z,6.27
2017-07-30T02:09:57.820Z,6.83
2017-07-30T02:12:26.523Z,7.07
2017-07-30T02:14:54.892Z,6.13
2017-07-30T02:17:23.991Z,6.30
2017-07-30T02:19:52.298Z,7.00
2017-07-30T02:22:21.330Z,6.60
2017-07-30T02:24:50.160Z,6.87
2017-07-30T02:27:19.379Z,5.90
2017-07-30T02:29:48.189Z,6.57
2017-07-30T02:32:16.761Z,7.03
2017-07-30T02:34:46.925Z,5.87
2017-07-30T02:37:15.555Z,6.90
2017-07-30T02:39:44.559Z,6.33
2017-07-30T02:42:13.385Z,7.03
2017-07-30T02:44:42.534Z,7.13
2017-07-30T02:47:11.550Z,6.43
2017-07-30T02:49:40.147Z,6.77
2017-07-30T02:52:08.419Z,6.60
2017-07-30T02:54:37.038Z,5.83
2017-07-30T02:57:05.383Z,5.67
2017-07-30T02:59:33.922Z,8.40
2017-07-30T03:02:04.012Z,6.00
2017-07-30T03:04:32.404Z,5.97
2017-07-30T03:07:01.320Z,5.73
2017-07-30T03:09:30.800Z,6.13
2017-07-30T03:11:59.188Z,5.40
2017-07-30T03:14:27.852Z,6.27
2017-07-30T03:16:56.239Z,6.80
2017-07-30T03:19:25.144Z,6.27
2017-07-30T03:21:53.463Z,6.30
2017-07-30T03:24:22.520Z,5.90
2017-07-30T03:26:51.987Z,7.13
2017-07-30T03:29:20.292Z,7.73
2017-07-30T03:31:48.565Z,6.63
2017-07-30T03:34:17.190Z,6.40
2017-07-30T03:36:45.563Z,5.93
2017-07-30T03:39:15.088Z,7.23
2017-07-30T03:41:43.385Z,6.67
2017-07-30T03:44:12.095Z,6.83
2017-07-30T03:46:41.154Z,7.33
2017-07-30T03:49:09.482Z,6.47
2017-07-30T03:51:38.659Z,6.50
2017-07-30T03:54:08.354Z,7.30
2017-07-30T03:56:36.737Z,6.50
2017-07-30T03:59:05.112Z,7.30
2017-07-30T04:01:34.087Z,6.20
2017-07-30T04:04:03.105Z,6.40
2017-07-30T04:06:31.394Z,5.57
2017-07-30T04:09:00.300Z,7.33
2017-07-30T04:11:28.602Z,6.37
2017-07-30T04:13:58.257Z,6.47
2017-07-30T04:16:26.881Z,7.10
2017-07-30T04:18:55.178Z,6.70
2017-07-30T04:21:24.109Z,5.83
2017-07-30T04:23:52.441Z,6.37
2017-07-30T04:26:22.295Z,6.73
2017-07-30T04:28:51.610Z,6.13
2017-07-30T04:31:20.400Z,7.00
2017-07-30T04:33:48.749Z,7.00
2017-07-30T04:36:17.382Z,6.80
2017-07-30T04:38:46.045Z,6.30
2017-07-30T04:41:15.421Z,5.67
2017-07-30T04:43:44.130Z,6.17
2017-07-30T04:46:12.480Z,7.50
2017-07-30T04:48:41.640Z,6.03
2017-07-30T04:51:09.925Z,6.40
2017-07-30T04:53:38.831Z,7.23
2017-07-30T04:56:07.267Z,6.40
2017-07-30T04:58:35.544Z,5.97
2017-07-30T05:01:03.910Z,6.20
2017-07-30T05:03:32.633Z,6.00
2017-07-30T05:06:01.556Z,6.53
2017-07-30T05:08:30.090Z,5.87
2017-07-30T05:10:58.728Z,6.30
2017-07-30T05:13:28.279Z,6.37
2017-07-30T05:15:56.974Z,5.53
2017-07-30T05:18:25.573Z,6.17
2017-07-30T05:20:54.823Z,5.83
2017-07-30T05:23:23.786Z,6.63
2017-07-30T05:25:52.269Z,7.10
2017-07-30T05:28:21.244Z,5.63
2017-07-30T05:30:49.832Z,5.60
2017-07-30T05:33:18.125Z,6.07
2017-07-30T05:35:47.119Z,5.70
2017-07-30T05:38:15.444Z,4.97
2017-07-30T05:40:44.008Z,5.37
2017-07-30T05:43:12.703Z,4.97
2017-07-30T05:45:41.256Z,5.17
2017-07-30T05:48:10.299Z,5.87
2017-07-30T05:50:40.073Z,5.17
2017-07-30T05:53:08.378Z,5.73
2017-07-30T05:55:38.988Z,6.20
2017-07-30T05:58:07.395Z,5.20
2017-07-30T06:00:35.663Z,5.17
2017-07-30T06:03:04.350Z,4.53
2017-07-30T06:05:32.638Z,4.67
2017-07-30T06:08:01.236Z,4.77
2017-07-30T06:10:29.525Z,5.30
2017-07-30T06:12:58.838Z,5.53
2017-07-30T06:15:27.123Z,5.00
2017-07-30T06:17:56.205Z,5.07
2017-07-30T06:20:25.120Z,5.23
2017-07-30T06:22:53.405Z,4.50
2017-07-30T06:25:24.484Z,4.70
2017-07-30T06:27:52.800Z,5.60
2017-07-30T06:30:21.212Z,4.93
2017-07-30T06:32:51.126Z,5.63
2017-07-30T06:35:19.714Z,4.60
2017-07-30T06:37:48.708Z,4.60
2017-07-30T06:40:17.053Z,6.00
2017-07-30T06:42:45.349Z,5.70
2017-07-30T06:45:13.953Z,4.57
2017-07-30T06:47:42.859Z,4.17
2017-07-30T06:50:11.153Z,5.50
2017-07-30T06:52:40.198Z,4.40
2017-07-30T06:55:08.488Z,5.87
2017-07-30T06:57:37.721Z,4.53
2017-07-30T07:00:06.030Z,5.50
2017-07-30T07:02:34.608Z,4.63
2017-07-30T07:05:03.680Z,4.57
2017-07-30T07:07:32.555Z,5.67
2017-07-30T07:10:01.154Z,4.20
2017-07-30T07:12:29.464Z,4.20
2017-07-30T07:14:59.371Z,4.53
2017-07-30T07:17:27.755Z,4.90
2017-07-30T07:19:56.955Z,5.57
2017-07-30T07:22:25.546Z,4.70
2017-07-30T07:24:54.530Z,4.17
2017-07-30T07:27:23.281Z,3.87
2017-07-30T07:29:51.620Z,4.10
2017-07-30T07:32:19.862Z,4.07
2017-07-30T07:34:48.489Z,4.13
2017-07-30T07:37:16.863Z,3.77
2017-07-30T07:39:45.253Z,4.43
2017-07-30T07:42:14.549Z,4.20
2017-07-30T07:44:43.630Z,4.57
2017-07-30T07:47:12.245Z,4.40
2017-07-30T07:49:40.537Z,4.33
2017-07-30T07:52:10.355Z,4.20
2017-07-30T07:54:39.730Z,5.40
2017-07-30T07:57:08.049Z,4.70
2017-07-30T07:59:37.095Z,4.17
2017-07-30T08:02:05.824Z,4.27
2017-07-30T08:04:34.196Z,4.40
2017-07-30T08:07:03.493Z,4.07
2017-07-30T08:09:32.602Z,4.83
2017-07-30T08:12:00.966Z,4.00
2017-07-30T08:14:29.379Z,4.30
2017-07-30T08:16:57.979Z,4.50
2017-07-30T08:19:27.369Z,4.60
2017-07-30T08:21:55.654Z,4.53
2017-07-30T08:24:24.786Z,4.53
2017-07-30T08:26:54.680Z,3.70
2017-07-30T08:29:22.938Z,3.70
2017-07-30T08:31:53.191Z,3.87
2017-07-30T08:34:24.196Z,4.23
2017-07-30T08:36:55.374Z,4.13
2017-07-30T08:39:25.194Z,3.73
2017-07-30T08:41:54.907Z,4.60
2017-07-30T08:44:24.445Z,4.80
2017-07-30T08:46:54.128Z,4.37
2017-07-30T08:49:23.633Z,3.83
2017-07-30T08:51:53.152Z,4.10
2017-07-30T08:54:22.844Z,4.60
2017-07-30T08:56:51.864Z,5.00
2017-07-30T08:59:20.396Z,3.70
2017-07-30T09:01:49.438Z,4.50
2017-07-30T09:04:18.102Z,3.83
2017-07-30T09:06:47.307Z,3.93
2017-07-30T09:09:16.623Z,4.17
2017-07-30T09:11:44.916Z,4.20
2017-07-30T09:14:16.440Z,4.00
2017-07-30T09:16:46.925Z,3.87
2017-07-30T09:19:17.580Z,4.43
2017-07-30T09:21:47.215Z,4.30
2017-07-30T09:24:15.636Z,3.67
2017-07-30T09:26:43.926Z,4.57
2017-07-30T09:29:16.264Z,3.60
2017-07-30T09:31:47.096Z,3.40
2017-07-30T09:34:15.720Z,4.13
2017-07-30T09:36:43.993Z,4.30
2017-07-30T09:39:12.311Z,3.80
2017-07-30T09:41:41.992Z,3.77
2017-07-30T09:44:11.490Z,3.43
2017-07-30T09:46:41.233Z,3.30
2017-07-30T09:49:10.866Z,3.87
2017-07-30T09:51:39.151Z,3.27
2017-07-30T09:54:08.319Z,3.30
2017-07-30T09:56:37.992Z,3.50
2017-07-30T09:59:07.746Z,3.60
2017-07-30T10:01:37.488Z,3.33
2017-07-30T10:04:06.417Z,3.73
2017-07-30T10:06:34.724Z,3.93
2017-07-30T10:09:04.449Z,3.53
2017-07-30T10:11:34.262Z,4.00
2017-07-30T10:14:03.773Z,3.70
2017-07-30T10:16:33.825Z,3.70
2017-07-30T10:19:03.466Z,4.00
2017-07-30T10:21:32.993Z,3.40
2017-07-30T10:24:02.938Z,3.40
2017-07-30T10:26:33.081Z,3.40
2017-07-30T10:29:03.494Z,3.07
2017-07-30T10:31:33.218Z,3.73
2017-07-30T10:34:02.740Z,3.60
2017-07-30T10:36:32.319Z,3.83
2017-07-30T10:39:01.848Z,3.43
2017-07-30T10:41:30.295Z,3.93
2017-07-30T10:43:58.614Z,3.50
2017-07-30T10:46:28.327Z,3.40
2017-07-30T10:48:57.855Z,3.40
2017-07-30T10:51:27.396Z,3.60
2017-07-30T10:53:57.374Z,3.80
2017-07-30T10:56:26.908Z,3.10
2017-07-30T10:58:56.822Z,3.37
2017-07-30T11:01:26.960Z,3.97
2017-07-30T11:03:57.262Z,4.00
2017-07-30T11:06:27.484Z,3.30
2017-07-30T11:08:57.114Z,3.77
2017-07-30T11:11:26.706Z,2.90
2017-07-30T11:13:56.684Z,3.40
2017-07-30T11:16:25.776Z,3.43
2017-07-30T11:18:55.499Z,3.40
2017-07-30T11:21:25.141Z,3.40
2017-07-30T11:23:53.856Z,3.43
2017-07-30T11:26:23.032Z,3.20
2017-07-30T11:28:52.158Z,3.30
2017-07-30T11:31:21.959Z,3.13
2017-07-30T11:33:51.993Z,3.60
2017-07-30T11:36:20.310Z,3.63
2017-07-30T11:38:50.158Z,3.53
2017-07-30T11:41:18.465Z,3.70
2017-07-30T11:43:49.182Z,2.60
2017-07-30T11:46:17.470Z,3.53
2017-07-30T11:48:45.872Z,3.40
2017-07-30T11:51:14.592Z,3.37
2017-07-30T11:53:43.722Z,3.40
2017-07-30T11:56:13.694Z,3.10
2017-07-30T11:58:43.299Z,2.57
2017-07-30T12:01:12.865Z,2.60
2017-07-30T12:03:42.377Z,2.67
2017-07-30T12:06:11.906Z,3.33
2017-07-30T12:08:42.101Z,2.83
2017-07-30T12:11:10.954Z,2.23
2017-07-30T12:13:41.433Z,2.97
2017-07-30T12:16:11.236Z,2.50
2017-07-30T12:18:39.574Z,2.30
2017-07-30T12:21:09.380Z,3.00
2017-07-30T12:23:37.728Z,2.03
2017-07-30T12:26:07.775Z,2.40
2017-07-30T12:28:36.157Z,2.40
2017-07-30T12:31:05.088Z,2.20
2017-07-30T12:33:34.863Z,2.53
2017-07-30T12:36:03.253Z,2.70
2017-07-30T12:38:32.226Z,2.47
2017-07-30T12:41:01.425Z,2.27
2017-07-30T12:43:30.205Z,2.50
2017-07-30T12:45:59.545Z,2.60
2017-07-30T12:48:28.647Z,3.80
2017-07-30T12:50:57.548Z,2.60
2017-07-30T12:53:26.233Z,2.83
2017-07-30T12:55:56.568Z,2.40
2017-07-30T12:58:25.581Z,2.30
2017-07-30T13:00:55.241Z,2.37
2017-07-30T13:03:24.802Z,2.43
2017-07-30T13:05:53.072Z,3.03
2017-07-30T13:08:22.205Z,2.10
2017-07-30T13:10:50.965Z,2.47
2017-07-30T13:13:19.223Z,2.60
2017-07-30T13:15:48.886Z,2.43
2017-07-30T13:18:17.233Z,2.50
2017-07-30T13:20:45.604Z,2.97
2017-07-30T13:23:16.760Z,3.60
2017-07-30T13:25:46.188Z,2.67
2017-07-30T13:28:15.680Z,2.97
2017-07-30T13:30:43.981Z,2.70
2017-07-30T13:33:13.442Z,3.83
2017-07-30T13:35:42.059Z,2.77
2017-07-30T13:38:11.866Z,2.67
2017-07-30T13:40:41.699Z,2.43
2017-07-30T13:43:10.773Z,2.10
2017-07-30T13:45:40.439Z,2.60
2017-07-30T13:48:09.089Z,2.90
2017-07-30T13:50:38.154Z,2.90
2017-07-30T13:53:08.918Z,2.33
2017-07-30T13:55:38.237Z,3.00
2017-07-30T13:58:08.256Z,2.87
2017-07-30T14:00:37.362Z,3.00
2017-07-30T14:03:06.049Z,3.80
2017-07-30T14:05:35.740Z,2.97
2017-07-30T14:08:04.821Z,3.13
2017-07-30T14:10:35.084Z,4.17
2017-07-30T14:13:03.488Z,3.20
2017-07-30T14:15:32.582Z,3.17
2017-07-30T14:18:01.946Z,2.60
2017-07-30T14:20:30.781Z,2.80
2017-07-30T14:23:00.774Z,2.70
2017-07-30T14:25:30.402Z,3.10
2017-07-30T14:28:01.771Z,3.40
2017-07-30T14:30:30.240Z,3.33
2017-07-30T14:33:00.244Z,3.77
2017-07-30T14:35:30.017Z,2.47
2017-07-30T14:37:58.438Z,2.47
2017-07-30T14:40:28.281Z,7.30
2017-07-30T14:42:56.574Z,5.27
2017-07-30T14:45:25.984Z,3.70
2017-07-30T14:47:55.343Z,4.17
2017-07-30T14:50:24.165Z,3.97
2017-07-30T14:52:52.452Z,3.40
2017-07-30T14:55:22.149Z,2.37
2017-07-30T14:57:50.332Z,3.33
2017-07-30T15:00:19.032Z,2.93
2017-07-30T15:02:48.108Z,2.50
2017-07-30T15:05:17.112Z,3.00
2017-07-30T15:07:45.506Z,2.80
2017-07-30T15:10:13.899Z,2.90
2017-07-30T15:12:42.470Z,2.50
2017-07-30T15:15:10.735Z,3.03
2017-07-30T15:17:39.034Z,3.30
2017-07-30T15:20:07.361Z,3.10
2017-07-30T15:22:36.460Z,3.50
2017-07-30T15:25:05.667Z,3.27
2017-07-30T15:27:34.810Z,3.70
2017-07-30T15:30:03.088Z,3.70
2017-07-30T15:32:31.399Z,3.83
2017-07-30T15:35:02.134Z,3.37
2017-07-30T15:37:31.992Z,3.77
2017-07-30T15:40:01.962Z,2.87
2017-07-30T15:42:30.265Z,3.13
2017-07-30T15:44:59.750Z,3.40
2017-07-30T15:47:28.058Z,3.80
2017-07-30T15:49:57.452Z,3.17
2017-07-30T15:52:26.025Z,3.00
2017-07-30T15:54:54.412Z,3.47
2017-07-30T15:57:23.288Z,2.83
2017-07-30T15:59:51.884Z,3.13
2017-07-30T16:02:20.466Z,3.77
2017-07-30T16:04:49.679Z,4.13
2017-07-30T16:07:18.039Z,3.40
2017-07-30T16:09:46.373Z,3.93
2017-07-30T16:12:14.747Z,3.20
2017-07-30T16:14:43.154Z,3.30
2017-07-30T16:17:11.416Z,3.07
2017-07-30T16:19:39.743Z,3.00
2017-07-30T16:22:08.029Z,2.90
2017-07-30T16:24:36.643Z,4.33
2017-07-30T16:27:04.920Z,3.70
2017-07-30T16:29:33.309Z,3.63
2017-07-30T16:32:01.705Z,2.83
2017-07-30T16:34:30.093Z,3.50
2017-07-30T16:36:58.427Z,3.67
2017-07-30T16:39:27.312Z,3.00
2017-07-30T16:41:55.957Z,3.70
2017-07-30T16:44:24.224Z,3.60
2017-07-30T16:46:53.396Z,3.47
2017-07-30T16:49:22.065Z,3.60
2017-07-30T16:51:51.349Z,4.00
2017-07-30T16:54:19.656Z,3.80
2017-07-30T16:56:48.721Z,3.53
2017-07-30T16:59:17.614Z,3.00
2017-07-30T17:01:46.000Z,3.30
2017-07-30T17:04:14.308Z,2.93
2017-07-30T17:06:43.020Z,3.07
2017-07-30T17:09:12.785Z,3.03
2017-07-30T17:11:41.152Z,3.00
2017-07-30T17:14:09.561Z,3.80
2017-07-30T17:16:37.939Z,2.70
2017-07-30T17:19:06.626Z,2.87
2017-07-30T17:21:35.730Z,2.57
2017-07-30T17:24:04.451Z,3.03
2017-07-30T17:26:33.625Z,3.90
2017-07-30T17:29:02.491Z,3.23
2017-07-30T17:31:31.503Z,3.40
2017-07-30T17:33:59.776Z,2.60
2017-07-30T17:36:28.707Z,2.73
2017-07-30T17:38:57.064Z,3.47
2017-07-30T17:41:25.859Z,3.10
2017-07-30T17:43:54.456Z,2.90
2017-07-30T17:46:22.814Z,3.13
2017-07-30T17:48:51.228Z,2.97
2017-07-30T17:51:19.583Z,3.43
2017-07-30T17:53:48.085Z,2.93
2017-07-30T17:56:17.171Z,2.97
2017-07-30T17:58:45.765Z,3.10
2017-07-30T18:01:14.046Z,4.77
2017-07-30T18:03:42.378Z,4.43
2017-07-30T18:06:10.758Z,3.00
2017-07-30T18:08:39.422Z,3.03
2017-07-30T18:11:07.704Z,3.53
2017-07-30T18:13:36.775Z,2.83
2017-07-30T18:16:06.323Z,3.60
2017-07-30T18:18:34.634Z,4.50
2017-07-30T18:21:02.970Z,5.13
2017-07-30T18:23:32.179Z,3.67
2017-07-30T18:26:01.554Z,3.77
2017-07-30T18:28:29.849Z,4.60
2017-07-30T18:30:59.857Z,5.00
2017-07-30T18:33:28.977Z,4.63
2017-07-30T18:35:57.280Z,4.47
2017-07-30T18:38:27.443Z,3.13
2017-07-30T18:40:55.745Z,3.47
2017-07-30T18:43:24.607Z,4.10
2017-07-30T18:45:52.974Z,4.67
2017-07-30T18:48:22.051Z,4.50
2017-07-30T18:50:51.029Z,5.07
2017-07-30T18:53:19.450Z,4.77
2017-07-30T18:55:49.899Z,3.20
2017-07-30T18:58:19.577Z,2.93
2017-07-30T19:00:48.923Z,3.87
2017-07-30T19:03:18.125Z,3.47
2017-07-30T19:05:47.044Z,4.03
2017-07-30T19:08:16.570Z,4.33
2017-07-30T19:10:44.958Z,3.23
2017-07-30T19:13:14.164Z,3.57
2017-07-30T19:15:42.558Z,3.27
2017-07-30T19:18:11.558Z,2.80
2017-07-30T19:20:40.166Z,3.47
2017-07-30T19:23:08.784Z,3.63
2017-07-30T19:25:38.762Z,3.93
2017-07-30T19:28:07.114Z,4.07
2017-07-30T19:30:35.555Z,3.40
2017-07-30T19:33:04.941Z,3.60
2017-07-30T19:35:34.234Z,3.37
2017-07-30T19:38:02.541Z,3.63
2017-07-30T19:40:31.610Z,3.23
2017-07-30T19:43:00.018Z,3.80
2017-07-30T19:45:28.296Z,3.30
2017-07-30T19:47:57.092Z,3.33
2017-07-30T19:50:25.643Z,4.70
2017-07-30T19:52:54.052Z,3.70
2017-07-30T19:55:22.444Z,2.97
2017-07-30T19:57:50.761Z,2.90
2017-07-30T20:00:19.047Z,4.10
2017-07-30T20:02:47.662Z,2.83
2017-07-30T20:05:15.930Z,4.83
2017-07-30T20:07:44.240Z,3.90
2017-07-30T20:10:12.528Z,3.20
2017-07-30T20:12:40.814Z,3.40
2017-07-30T20:15:09.511Z,3.53
2017-07-30T20:17:38.303Z,2.90
2017-07-30T20:20:06.674Z,3.37
2017-07-30T20:22:35.575Z,3.00
2017-07-30T20:25:03.840Z,3.10
2017-07-30T20:27:32.241Z,2.73
2017-07-30T20:30:01.455Z,3.07
2017-07-30T20:32:30.834Z,3.37
2017-07-30T20:34:59.182Z,3.17
2017-07-30T20:37:28.336Z,3.70
2017-07-30T20:39:56.713Z,3.03
2017-07-30T20:42:25.004Z,3.20
2017-07-30T20:44:53.687Z,3.20
2017-07-30T20:47:21.983Z,3.73
2017-07-30T20:49:51.142Z,2.83
2017-07-30T20:52:19.537Z,2.77
2017-07-30T20:54:47.827Z,3.00
2017-07-30T20:57:16.409Z,3.87
2017-07-30T20:59:45.417Z,3.60
2017-07-30T21:02:13.857Z,2.97
2017-07-30T21:04:42.188Z,3.90
2017-07-30T21:07:10.474Z,3.60
2017-07-30T21:09:39.056Z,3.57
2017-07-30T21:12:07.438Z,3.67
2017-07-30T21:14:36.984Z,2.60
2017-07-30T21:17:06.472Z,3.10
2017-07-30T21:19:34.750Z,2.73
2017-07-30T21:22:03.829Z,2.60
2017-07-30T21:24:32.108Z,3.20
2017-07-30T21:27:00.411Z,3.43
2017-07-30T21:29:29.398Z,3.63
2017-07-30T21:31:58.219Z,3.60
2017-07-30T21:34:27.521Z,3.43
2017-07-30T21:36:56.617Z,3.03
2017-07-30T21:39:25.681Z,2.77
2017-07-30T21:41:54.076Z,3.63
2017-07-30T21:44:23.143Z,2.90
2017-07-30T21:46:51.766Z,3.10
2017-07-30T21:49:20.253Z,3.80
2017-07-30T21:51:48.950Z,4.20
2017-07-30T21:54:17.327Z,3.80
2017-07-30T21:56:45.615Z,3.87
2017-07-30T21:59:14.196Z,2.93
2017-07-30T22:01:43.834Z,3.30
2017-07-30T22:04:13.300Z,3.80
2017-07-30T22:06:41.712Z,4.03
2017-07-30T22:09:10.503Z,4.10
2017-07-30T22:11:39.085Z,4.77
2017-07-30T22:14:07.473Z,3.77
2017-07-30T22:16:36.680Z,4.00
2017-07-30T22:19:05.041Z,4.17
2017-07-30T22:21:33.349Z,4.40
2017-07-30T22:24:01.918Z,3.23
2017-07-30T22:26:30.866Z,4.30
2017-07-30T22:28:59.556Z,4.60
2017-07-30T22:31:28.976Z,4.40
2017-07-30T22:33:58.172Z,3.87
2017-07-30T22:36:26.457Z,4.60
2017-07-30T22:38:55.418Z,4.57
2017-07-30T22:41:24.822Z,4.43
2017-07-30T22:43:53.915Z,3.70
2017-07-30T22:46:22.178Z,4.40
2017-07-30T22:48:50.828Z,4.27
2017-07-30T22:51:19.634Z,3.83
2017-07-30T22:53:48.520Z,4.17
2017-07-30T22:56:16.804Z,3.93
2017-07-30T22:58:45.936Z,3.63
2017-07-30T23:01:14.324Z,4.27
2017-07-30T23:03:43.523Z,3.90
2017-07-30T23:06:12.108Z,4.20
2017-07-30T23:08:42.072Z,3.80
2017-07-30T23:11:10.414Z,3.83
2017-07-30T23:13:39.108Z,4.03
2017-07-30T23:16:07.523Z,3.83
2017-07-30T23:18:37.155Z,3.80
2017-07-30T23:21:05.869Z,3.73
2017-07-30T23:23:34.558Z,3.87
2017-07-30T23:26:03.380Z,4.57
2017-07-30T23:28:31.684Z,3.80
2017-07-30T23:31:00.223Z,4.30
2017-07-30T23:33:28.864Z,4.60
2017-07-30T23:35:58.358Z,3.70
2017-07-30T23:38:26.663Z,4.03
2017-07-30T23:40:55.710Z,3.60
2017-07-30T23:43:24.305Z,4.63
2017-07-30T23:45:52.599Z,3.50
2017-07-30T23:48:21.751Z,3.67
2017-07-30T23:50:50.090Z,3.80
2017-07-30T23:53:18.475Z,3.63
2017-07-30T23:55:47.162Z,3.40
2017-07-30T23:58:15.870Z,3.33
